Time;durP1;ratioP1;P1;durP2;ratioP2;P2;SDS_P1;SDS_P2;PMS_P1;PMS_P2;Temp;Humidity;BMP_temperature;BMP_pressure;BME280_temperature;BME280_humidity;BME280_pressure;Samples;Min_cycle;Max_cycle;Signal;HPM_P1;HPM_P2
2022/02/22 00:02:06;;;;;;;10.77;4.07;;;;;;;3.70;100.00;99285.00;5116287;28;20123;-74
2022/02/22 00:04:36;;;;;;;11.07;4.68;;;;;;;3.64;100.00;99285.28;5116273;28;20854;-74
2022/02/22 00:07:06;;;;;;;10.05;4.35;;;;;;;3.61;100.00;99278.38;5116506;28;20051;-74
2022/02/22 00:09:35;;;;;;;11.15;4.70;;;;;;;3.58;100.00;99281.19;5116266;28;20054;-74
2022/02/22 00:12:04;;;;;;;13.52;4.20;;;;;;;3.58;100.00;99283.81;5098509;28;20055;-74
2022/02/22 00:14:32;;;;;;;14.27;4.38;;;;;;;3.59;100.00;99279.38;5097544;28;20068;-74
2022/02/22 00:17:00;;;;;;;10.15;4.13;;;;;;;3.57;100.00;99278.59;5098687;28;20392;-73
2022/02/22 00:19:30;;;;;;;12.38;3.83;;;;;;;3.62;100.00;99287.16;5116042;28;20031;-74
2022/02/22 00:21:58;;;;;;;12.27;4.38;;;;;;;3.64;100.00;99290.56;5116232;28;20043;-74
2022/02/22 00:24:27;;;;;;;9.25;3.58;;;;;;;3.68;100.00;99287.72;5097663;28;20039;-74
2022/02/22 00:26:59;;;;;;;9.73;3.97;;;;;;;3.71;100.00;99292.00;5115947;28;20047;-74
2022/02/22 00:29:27;;;;;;;9.35;3.45;;;;;;;3.76;100.00;99292.59;5115680;28;20063;-75
2022/02/22 00:31:56;;;;;;;9.52;3.80;;;;;;;3.77;100.00;99294.34;5116142;28;20101;-75
2022/02/22 00:34:24;;;;;;;10.48;3.70;;;;;;;3.76;100.00;99295.25;5115445;28;20485;-76
2022/02/22 00:36:53;;;;;;;8.15;3.88;;;;;;;3.77;100.00;99293.50;5115933;28;20040;-74
2022/02/22 00:39:22;;;;;;;10.18;3.70;;;;;;;3.74;100.00;99291.84;5115762;28;20040;-75
2022/02/22 00:41:50;;;;;;;11.50;4.22;;;;;;;3.76;100.00;99289.13;5115831;28;20039;-75
2022/02/22 00:44:18;;;;;;;8.32;3.97;;;;;;;3.76;100.00;99289.97;5115235;28;20072;-76
2022/02/22 00:46:47;;;;;;;11.52;4.65;;;;;;;3.76;100.00;99289.97;5115981;28;20129;-75
2022/02/22 00:49:15;;;;;;;8.38;3.67;;;;;;;3.79;100.00;99287.22;5097813;28;20054;-75
2022/02/22 00:51:44;;;;;;;10.85;4.05;;;;;;;3.80;100.00;99295.97;5115680;28;20552;-75
2022/02/22 00:54:13;;;;;;;10.68;4.22;;;;;;;3.88;100.00;99299.09;5114937;28;20070;-75
2022/02/22 00:56:41;;;;;;;8.38;3.80;;;;;;;3.98;100.00;99297.75;5115268;28;20118;-75
2022/02/22 00:59:10;;;;;;;11.23;4.10;;;;;;;4.06;100.00;99292.09;5115271;28;20043;-75
2022/02/22 01:01:38;;;;;;;10.65;4.20;;;;;;;4.07;100.00;99294.66;5115233;28;20370;-75
2022/02/22 01:04:06;;;;;;;10.25;4.40;;;;;;;4.10;100.00;99298.91;5115389;28;20472;-75
2022/02/22 01:06:34;;;;;;;12.05;3.80;;;;;;;4.02;100.00;99300.13;5097005;28;20477;-74
2022/02/22 01:09:06;;;;;;;10.80;4.55;;;;;;;4.01;100.00;99306.34;5115144;28;20044;-75
2022/02/22 01:11:37;;;;;;;8.52;4.07;;;;;;;4.07;100.00;99299.94;5114831;28;20039;-74
2022/02/22 01:14:05;;;;;;;9.13;4.30;;;;;;;3.91;100.00;99299.81;5115448;28;20055;-74
2022/02/22 01:16:33;;;;;;;11.40;4.00;;;;;;;3.79;100.00;99295.13;5096606;28;20378;-74
2022/02/22 01:19:02;;;;;;;10.70;4.57;;;;;;;3.70;100.00;99301.69;5114692;28;20050;-74
2022/02/22 01:21:31;;;;;;;15.70;4.40;;;;;;;3.62;100.00;99302.97;5096386;28;20046;-74
2022/02/22 01:24:02;;;;;;;11.35;4.75;;;;;;;3.61;100.00;99298.63;5115106;28;20043;-75
2022/02/22 01:26:31;;;;;;;9.63;4.63;;;;;;;3.64;100.00;99288.78;5114426;28;20048;-75
2022/02/22 01:29:02;;;;;;;9.43;4.50;;;;;;;3.59;100.00;99295.22;5114938;28;20067;-75
2022/02/22 01:31:30;;;;;;;12.80;4.40;;;;;;;3.62;100.00;99297.69;5114461;28;20040;-75
2022/02/22 01:33:59;;;;;;;12.35;5.10;;;;;;;3.60;100.00;99289.00;5114904;28;20047;-74
2022/02/22 01:36:28;;;;;;;11.05;5.00;;;;;;;3.51;100.00;99294.72;5096251;28;20100;-75
2022/02/22 01:38:56;;;;;;;9.35;4.88;;;;;;;3.53;100.00;99293.72;5114740;28;20089;-76
2022/02/22 01:41:26;;;;;;;8.68;5.13;;;;;;;3.49;100.00;99294.78;5096212;28;20039;-76
2022/02/22 01:43:54;;;;;;;12.13;5.32;;;;;;;3.38;100.00;99294.44;5096414;28;20404;-76
2022/02/22 01:46:27;;;;;;;11.75;4.97;;;;;;;3.36;100.00;99298.91;5114187;28;20040;-77
2022/02/22 01:48:55;;;;;;;10.00;3.67;;;;;;;3.77;100.00;99291.72;5114424;28;20039;-76
2022/02/22 01:51:23;;;;;;;8.77;2.80;;;;;;;4.25;100.00;99295.53;5095920;28;20054;-77
2022/02/22 01:53:52;;;;;;;7.07;2.60;;;;;;;4.55;100.00;99301.06;5096614;28;20051;-76
2022/02/22 01:56:22;;;;;;;6.53;2.17;;;;;;;4.78;100.00;99299.88;5096346;28;20138;-75
2022/02/22 01:58:51;;;;;;;6.15;2.60;;;;;;;4.84;100.00;99315.44;5114327;28;20039;-76
2022/02/22 02:01:19;;;;;;;7.18;2.60;;;;;;;4.97;100.00;99313.00;5114053;28;20035;-75
2022/02/22 02:03:53;;;;;;;6.65;2.20;;;;;;;4.94;100.00;99321.94;5114183;28;20067;-76
2022/02/22 02:06:21;;;;;;;6.40;2.30;;;;;;;4.98;100.00;99320.84;5095904;28;20138;-76
2022/02/22 02:08:50;;;;;;;6.30;2.72;;;;;;;4.96;100.00;99311.28;5113823;28;20054;-76
2022/02/22 02:11:18;;;;;;;7.85;2.70;;;;;;;4.94;100.00;99314.00;5096112;28;20047;-75
2022/02/22 02:13:48;;;;;;;9.00;2.78;;;;;;;5.00;100.00;99318.97;5113833;28;20053;-74
2022/02/22 02:16:16;;;;;;;8.82;2.63;;;;;;;4.99;100.00;99321.69;5114020;28;20473;-75
2022/02/22 02:18:45;;;;;;;8.43;2.88;;;;;;;4.96;100.00;99327.16;5095482;28;20465;-76
2022/02/22 02:21:16;;;;;;;7.95;2.90;;;;;;;4.96;100.00;99325.34;5114108;28;20044;-76
2022/02/22 02:23:46;;;;;;;7.60;2.85;;;;;;;4.96;100.00;99321.88;5113768;28;20085;-75
2022/02/22 02:26:14;;;;;;;7.30;3.05;;;;;;;4.95;100.00;99313.09;5114146;28;20051;-74
2022/02/22 02:28:42;;;;;;;10.10;3.20;;;;;;;4.91;100.00;99319.44;5095236;28;20528;-75
2022/02/22 02:31:10;;;;;;;6.28;2.63;;;;;;;4.93;100.00;99316.75;5113924;28;20044;-74
2022/02/22 02:33:39;;;;;;;6.18;2.72;;;;;;;5.02;100.00;99322.41;5113543;28;20039;-75
2022/02/22 02:36:07;;;;;;;6.70;2.50;;;;;;;4.97;100.00;99321.78;5095707;28;20050;-75
2022/02/22 02:38:35;;;;;;;6.72;2.70;;;;;;;5.03;100.00;99313.53;5113547;28;20039;-74
2022/02/22 02:41:07;;;;;;;6.35;2.30;;;;;;;5.05;100.00;99326.66;5095454;28;20156;-72
2022/02/22 02:43:36;;;;;;;7.22;2.60;;;;;;;5.05;100.00;99327.53;5113214;28;20096;-73
2022/02/22 02:46:04;;;;;;;7.15;2.15;;;;;;;5.18;100.00;99325.06;5113717;28;20067;-75
2022/02/22 02:48:32;;;;;;;5.90;2.30;;;;;;;5.29;100.00;99324.50;5095182;28;20047;-73
2022/02/22 02:51:01;;;;;;;6.55;2.15;;;;;;;5.36;100.00;99321.47;5095265;28;20393;-78
2022/02/22 02:53:29;;;;;;;5.40;2.05;;;;;;;5.42;100.00;99322.94;5113230;28;20055;-75
2022/02/22 02:55:58;;;;;;;5.60;2.13;;;;;;;5.47;100.00;99323.53;5095536;28;20135;-73
2022/02/22 02:58:28;;;;;;;4.53;1.60;;;;;;;5.47;100.00;99329.66;5112917;28;20545;-73
2022/02/22 03:00:56;;;;;;;3.70;1.50;;;;;;;5.51;100.00;99330.38;5113472;28;20043;-75
2022/02/22 03:03:25;;;;;;;4.30;1.52;;;;;;;5.46;100.00;99316.53;5113446;28;20040;-86
2022/02/22 03:05:53;;;;;;;3.30;1.35;;;;;;;5.45;100.00;99330.69;5095486;28;20130;-87
2022/02/22 03:08:22;;;;;;;4.18;1.85;;;;;;;5.45;100.00;99330.69;5113473;28;20078;-72
2022/02/22 03:10:51;;;;;;;4.60;1.80;;;;;;;5.41;100.00;99334.47;5094932;28;20071;-73
2022/02/22 03:13:19;;;;;;;2.80;1.30;;;;;;;5.47;100.00;99344.69;5113531;28;20050;-73
2022/02/22 03:15:49;;;;;;;5.15;1.90;;;;;;;5.45;100.00;99336.84;5113167;28;20050;-74
2022/02/22 03:18:17;;;;;;;3.92;1.73;;;;;;;5.41;100.00;99339.75;5116022;28;20381;-75
2022/02/22 03:20:45;;;;;;;5.20;1.60;;;;;;;5.45;100.00;99347.41;5116828;28;20504;-76
2022/02/22 03:23:14;;;;;;;5.07;1.15;;;;;;;5.41;100.00;99334.47;5117680;28;20046;-73
2022/02/22 03:25:43;;;;;;;2.28;0.85;;;;;;;5.39;100.00;99352.16;5098393;28;20545;-73
2022/02/22 03:28:11;;;;;;;3.63;1.38;;;;;;;5.35;100.00;99348.00;5117038;28;20123;-74
2022/02/22 03:30:39;;;;;;;4.35;1.50;;;;;;;5.29;100.00;99335.94;5116999;28;20049;-73
2022/02/22 03:33:10;;;;;;;3.95;1.50;;;;;;;5.26;100.00;99345.84;5099105;28;20374;-75
2022/02/22 03:35:39;;;;;;;5.32;2.17;;;;;;;5.22;100.00;99355.72;5116960;28;20043;-74
2022/02/22 03:38:08;;;;;;;3.75;1.50;;;;;;;5.21;100.00;99363.72;5117139;28;20047;-74
2022/02/22 03:40:38;;;;;;;2.72;1.35;;;;;;;5.15;100.00;99363.13;5116894;28;20066;-76
2022/02/22 03:43:07;;;;;;;4.53;1.77;;;;;;;5.12;100.00;99365.94;5116885;28;20039;-76
2022/02/22 03:45:36;;;;;;;4.82;1.38;;;;;;;5.15;100.00;99365.75;5098193;28;20489;-75
2022/02/22 03:48:05;;;;;;;4.20;1.45;;;;;;;5.13;100.00;99370.28;5117208;28;20042;-73
2022/02/22 03:50:35;;;;;;;3.17;1.48;;;;;;;5.15;100.00;99371.03;5116415;28;20053;-73
2022/02/22 03:53:05;;;;;;;2.95;1.40;;;;;;;5.21;100.00;99374.28;5117282;28;20048;-73
2022/02/22 03:55:33;;;;;;;3.92;1.42;;;;;;;5.21;100.00;99376.94;5116796;28;20439;-72
2022/02/22 03:58:02;;;;;;;4.10;1.38;;;;;;;5.14;100.00;99374.63;5116458;28;20045;-73
2022/02/22 04:00:30;;;;;;;3.42;1.40;;;;;;;5.13;100.00;99380.00;5116349;28;20063;-79
2022/02/22 04:02:59;;;;;;;3.45;1.40;;;;;;;5.08;100.00;99377.56;5116630;28;20044;-73
2022/02/22 04:05:28;;;;;;;3.10;1.30;;;;;;;5.05;100.00;99396.25;5116601;28;20093;-73
2022/02/22 04:07:58;;;;;;;3.33;1.70;;;;;;;4.98;100.00;99394.84;5098377;28;20096;-73
2022/02/22 04:10:26;;;;;;;2.95;1.50;;;;;;;4.99;100.00;99404.47;5116489;28;20046;-74
2022/02/22 04:12:54;;;;;;;2.50;1.30;;;;;;;4.97;100.00;99403.72;5115984;28;20059;-74
2022/02/22 04:15:23;;;;;;;2.35;1.33;;;;;;;4.99;100.00;99407.13;5116363;28;20062;-77
2022/02/22 04:17:51;;;;;;;4.07;1.60;;;;;;;4.93;100.00;99402.16;5116078;28;20044;-77
2022/02/22 04:20:19;;;;;;;4.10;1.52;;;;;;;4.92;100.00;99404.84;5116457;28;20043;-77
2022/02/22 04:22:49;;;;;;;3.55;1.58;;;;;;;4.86;100.00;99408.69;5097736;28;20051;-76
2022/02/22 04:25:20;;;;;;;2.42;1.23;;;;;;;4.90;100.00;99415.50;5116257;28;20122;-76
2022/02/22 04:27:52;;;;;;;3.50;1.58;;;;;;;4.85;100.00;99413.13;5116379;28;20105;-79
2022/02/22 04:30:20;;;;;;;3.72;2.00;;;;;;;4.95;100.00;99423.22;5115292;28;20039;-79
2022/02/22 04:32:49;;;;;;;2.53;1.58;;;;;;;4.97;100.00;99427.50;5115689;28;20489;-73
2022/02/22 04:35:17;;;;;;;3.22;1.67;;;;;;;4.98;100.00;99429.19;5115890;28;20126;-73
2022/02/22 04:37:45;;;;;;;3.45;1.20;;;;;;;5.01;100.00;99420.25;5115400;28;20480;-74
2022/02/22 04:40:13;;;;;;;4.43;1.45;;;;;;;4.99;100.00;99428.25;5116069;28;20040;-73
2022/02/22 04:42:46;;;;;;;2.30;1.17;;;;;;;5.00;100.00;99423.84;5115089;28;20565;-74
2022/02/22 04:45:15;;;;;;;2.50;1.45;;;;;;;5.07;100.00;99434.03;5097713;28;20044;-77
2022/02/22 04:47:44;;;;;;;3.50;1.40;;;;;;;5.10;100.00;99430.34;5115662;28;20044;-78
2022/02/22 04:50:12;;;;;;;3.28;1.50;;;;;;;5.16;100.00;99433.56;5097877;28;20054;-77
2022/02/22 04:52:41;;;;;;;4.53;1.60;;;;;;;5.18;100.00;99439.63;5097253;28;20048;-76
2022/02/22 04:55:10;;;;;;;3.00;1.60;;;;;;;5.29;100.00;99435.56;5115519;28;20089;-77
2022/02/22 04:57:39;;;;;;;2.03;0.90;;;;;;;5.33;100.00;99432.69;5097201;28;20047;-77
2022/02/22 05:00:13;;;;;;;3.08;1.25;;;;;;;5.42;100.00;99431.38;5115213;28;20385;-77
2022/02/22 05:02:42;;;;;;;2.40;1.23;;;;;;;5.47;100.00;99434.63;5115611;28;20435;-78
2022/02/22 05:05:11;;;;;;;3.25;1.42;;;;;;;5.44;100.00;99422.41;5115481;28;20045;-78
2022/02/22 05:07:39;;;;;;;1.80;1.20;;;;;;;5.44;100.00;99432.13;5115545;28;20065;-88
2022/02/22 05:10:08;;;;;;;1.65;1.15;;;;;;;5.49;100.00;99443.31;5115888;28;20105;-89
2022/02/22 05:12:37;;;;;;;2.38;1.40;;;;;;;5.57;100.00;99440.28;5115317;28;20040;-81
2022/02/22 05:15:06;;;;;;;1.75;0.98;;;;;;;5.52;100.00;99450.25;5115340;28;20062;-80
2022/02/22 05:17:36;;;;;;;4.78;1.27;;;;;;;5.52;100.00;99442.31;5097120;28;20051;-79
2022/02/22 05:20:07;;;;;;;2.63;1.40;;;;;;;5.47;100.00;99439.91;5115676;28;20043;-79
2022/02/22 05:22:39;;;;;;;2.65;1.30;;;;;;;5.39;100.00;99437.66;5097057;28;20408;-79
2022/02/22 05:25:09;;;;;;;5.13;1.50;;;;;;;5.25;100.00;99447.25;5115000;28;20042;-78
2022/02/22 05:27:37;;;;;;;2.90;1.20;;;;;;;5.23;100.00;99460.56;5114730;28;20047;-80
2022/02/22 05:30:09;;;;;;;5.30;1.58;;;;;;;5.21;100.00;99454.50;5114962;28;20050;-82
2022/02/22 05:32:38;;;;;;;3.00;1.50;;;;;;;5.22;100.00;99447.41;5114698;28;20051;-79
2022/02/22 05:35:13;;;;;;;4.35;1.17;;;;;;;5.21;100.00;99456.25;5114631;28;20093;-75
2022/02/22 05:37:41;;;;;;;8.93;1.70;;;;;;;5.13;100.00;99468.09;5114526;28;20101;-76
2022/02/22 05:40:12;;;;;;;4.40;1.60;;;;;;;5.12;100.00;99471.66;5114350;28;20048;-75
2022/02/22 05:42:43;;;;;;;2.78;1.52;;;;;;;5.16;100.00;99467.06;5096229;28;20052;-77
2022/02/22 05:45:14;;;;;;;2.25;1.50;;;;;;;5.14;100.00;99475.09;5114745;28;20081;-76
2022/02/22 05:47:43;;;;;;;2.63;1.65;;;;;;;5.04;100.00;99470.34;5096049;28;20044;-78
2022/02/22 05:50:12;;;;;;;2.92;1.40;;;;;;;4.99;100.00;99481.13;5114763;28;20126;-77
2022/02/22 05:52:41;;;;;;;4.80;1.58;;;;;;;5.02;100.00;99483.63;5096181;28;20047;-77
2022/02/22 05:55:10;;;;;;;3.80;1.80;;;;;;;5.04;100.00;99494.97;5114178;28;20043;-77
2022/02/22 05:57:39;;;;;;;4.95;1.80;;;;;;;5.03;100.00;99503.84;5096048;28;20047;-85
2022/02/22 06:00:10;;;;;;;3.05;1.70;;;;;;;4.98;100.00;99494.41;5114563;28;20056;-80
2022/02/22 06:02:38;;;;;;;3.78;1.80;;;;;;;5.03;100.00;99501.22;5111246;28;20047;-85
2022/02/22 06:05:09;;;;;;;2.47;1.55;;;;;;;4.98;100.00;99495.28;5096163;28;20078;-75
2022/02/22 06:07:37;;;;;;;4.20;1.95;;;;;;;5.00;100.00;99503.97;5114068;28;20044;-77
2022/02/22 06:10:06;;;;;;;3.92;1.70;;;;;;;4.95;100.00;99511.28;5113914;28;20544;-76
2022/02/22 06:12:35;;;;;;;3.58;1.63;;;;;;;4.98;100.00;99505.00;5114158;28;20127;-74
2022/02/22 06:15:05;;;;;;;2.92;1.20;;;;;;;4.96;100.00;99510.34;5095268;28;20062;-74
2022/02/22 06:17:39;;;;;;;2.60;1.70;;;;;;;4.92;100.00;99522.00;5114020;28;20043;-74
2022/02/22 06:20:12;;;;;;;3.35;1.73;;;;;;;4.95;100.00;99529.78;5114217;28;20092;-72
2022/02/22 06:22:41;;;;;;;3.17;2.00;;;;;;;4.92;100.00;99532.56;5113813;28;20078;-77
2022/02/22 06:25:10;;;;;;;3.92;1.90;;;;;;;4.83;100.00;99533.88;5097509;28;20545;-69
2022/02/22 06:27:49;;;;;;;3.80;1.80;;;;;;;4.74;100.00;99542.25;5114985;28;20045;-71
2022/02/22 06:30:19;;;;;;;5.07;2.00;;;;;;;4.73;100.00;99547.59;5095766;28;20485;-72
2022/02/22 06:32:48;;;;;;;2.60;1.55;;;;;;;4.66;100.00;99551.47;5113730;28;20477;-72
2022/02/22 06:35:17;;;;;;;2.75;1.70;;;;;;;4.67;100.00;99569.03;5095725;28;20135;-72
2022/02/22 06:37:46;;;;;;;4.05;1.70;;;;;;;4.72;100.00;99580.22;5095696;28;20077;-72
2022/02/22 06:40:14;;;;;;;3.67;2.13;;;;;;;4.74;100.00;99570.47;5113480;28;20055;-72
2022/02/22 06:42:43;;;;;;;3.13;1.50;;;;;;;4.79;100.00;99579.00;5095257;28;20047;-72
2022/02/22 06:45:12;;;;;;;2.70;1.70;;;;;;;4.70;100.00;99580.28;5113650;28;20077;-72
2022/02/22 06:47:42;;;;;;;2.47;1.50;;;;;;;4.76;100.00;99590.59;5095556;28;20070;-72
2022/02/22 06:50:13;;;;;;;2.15;1.77;;;;;;;4.77;100.00;99592.31;5113632;28;20042;-72
2022/02/22 06:52:43;;;;;;;3.35;1.80;;;;;;;4.77;100.00;99591.44;5094721;28;20051;-73
2022/02/22 06:55:13;;;;;;;2.85;1.35;;;;;;;4.80;100.00;99580.72;5113894;28;20054;-73
2022/02/22 06:57:42;;;;;;;2.92;1.80;;;;;;;4.81;100.00;99603.56;5095558;28;20548;-73
2022/02/22 07:00:13;;;;;;;5.43;2.10;;;;;;;4.85;100.00;99589.31;5095610;28;20113;-72
2022/02/22 07:02:42;;;;;;;2.72;1.60;;;;;;;4.80;100.00;99600.06;5095354;28;20047;-72
2022/02/22 07:05:11;;;;;;;3.55;1.65;;;;;;;4.81;100.00;99598.28;5095372;28;20134;-72
2022/02/22 07:07:46;;;;;;;4.07;1.63;;;;;;;4.96;100.00;99602.88;5113464;28;20500;-74
2022/02/22 07:10:14;;;;;;;2.92;1.08;;;;;;;5.01;100.00;99611.41;5095344;28;20044;-74
2022/02/22 07:12:43;;;;;;;3.53;1.63;;;;;;;4.96;100.00;99616.06;5113521;28;20071;-76
2022/02/22 07:15:13;;;;;;;3.92;1.73;;;;;;;5.00;100.00;99633.50;5113389;28;20105;-73
2022/02/22 07:17:45;;;;;;;3.47;1.50;;;;;;;5.04;100.00;99635.06;5094985;28;20519;-74
2022/02/22 07:20:14;;;;;;;2.42;1.58;;;;;;;5.13;100.00;99632.00;5113131;28;20048;-72
2022/02/22 07:22:44;;;;;;;2.72;1.60;;;;;;;5.30;100.00;99643.53;5113392;28;20036;-75
2022/02/22 07:25:13;;;;;;;1.35;1.00;;;;;;;5.39;100.00;99636.00;5113211;28;20048;-75
2022/02/22 07:27:44;;;;;;;2.20;1.25;;;;;;;5.48;100.00;99647.94;5094905;28;20043;-75
2022/02/22 07:30:16;;;;;;;3.90;1.70;;;;;;;5.60;100.00;99652.66;5113221;28;20048;-78
2022/02/22 07:32:47;;;;;;;3.08;1.40;;;;;;;5.57;100.00;99652.78;5094442;28;20504;-84
2022/02/22 07:35:16;;;;;;;3.65;1.80;;;;;;;5.70;100.00;99659.19;5095027;28;20412;-77
2022/02/22 07:37:45;;;;;;;3.58;1.52;;;;;;;5.80;100.00;99675.47;5113047;28;20048;-71
2022/02/22 07:40:16;;;;;;;3.35;1.70;;;;;;;5.83;100.00;99670.03;5113222;28;20040;-73
2022/02/22 07:42:45;;;;;;;3.42;1.30;;;;;;;5.78;100.00;99677.31;5113062;28;20056;-72
2022/02/22 07:45:16;;;;;;;4.28;1.35;;;;;;;5.72;100.00;99681.13;5094831;28;20397;-73
2022/02/22 07:47:45;;;;;;;2.58;1.48;;;;;;;5.62;100.00;99671.94;5094760;28;20097;-73
2022/02/22 07:50:13;;;;;;;4.10;1.30;;;;;;;5.63;100.00;99672.78;5094868;28;20051;-71
2022/02/22 07:52:42;;;;;;;4.22;1.45;;;;;;;5.52;100.00;99681.25;5094625;28;20465;-71
2022/02/22 07:55:10;;;;;;;3.20;1.40;;;;;;;5.52;100.00;99683.91;5112627;28;20046;-72
2022/02/22 07:57:42;;;;;;;2.92;1.35;;;;;;;5.49;100.00;99685.81;5094867;28;20055;-72
2022/02/22 08:00:11;;;;;;;3.55;1.30;;;;;;;5.54;100.00;99695.25;5094497;28;20507;-72
2022/02/22 08:02:58;;;;;;;2.72;1.40;;;;;;;5.59;100.00;99690.59;5095000;28;20067;-72
2022/02/22 08:05:26;;;;;;;2.25;0.85;;;;;;;5.75;100.00;99701.28;5098632;28;20043;-72
2022/02/22 08:07:54;;;;;;;3.00;1.25;;;;;;;5.85;100.00;99699.06;5097646;28;20584;-72
2022/02/22 08:10:25;;;;;;;2.72;1.08;;;;;;;5.91;100.00;99707.59;5098473;28;20055;-72
2022/02/22 08:12:53;;;;;;;2.80;0.95;;;;;;;5.89;100.00;99705.94;5116029;28;20131;-72
2022/02/22 08:15:22;;;;;;;3.00;1.08;;;;;;;5.94;100.00;99707.44;5097916;28;20139;-72
2022/02/22 08:17:52;;;;;;;2.28;1.02;;;;;;;5.99;100.00;99709.84;5098070;28;20451;-73
2022/02/22 08:20:22;;;;;;;3.90;1.10;;;;;;;6.02;100.00;99718.50;5098082;28;20043;-72
2022/02/22 08:22:54;;;;;;;2.33;0.80;;;;;;;6.04;100.00;99731.66;5097747;28;20047;-73
2022/02/22 08:25:22;;;;;;;3.30;0.82;;;;;;;6.03;100.00;99740.53;5097841;28;20046;-72
2022/02/22 08:27:51;;;;;;;1.00;0.70;;;;;;;6.06;100.00;99750.09;5097735;28;20047;-72
2022/02/22 08:30:19;;;;;;;0.80;0.80;;;;;;;6.06;100.00;99735.06;5097968;28;20040;-71
2022/02/22 08:32:48;;;;;;;1.85;0.90;;;;;;;6.13;100.00;99744.44;5097882;28;20485;-72
2022/02/22 08:35:16;;;;;;;3.15;0.88;;;;;;;6.06;100.00;99745.66;5097616;28;20065;-72
2022/02/22 08:37:50;;;;;;;3.72;1.20;;;;;;;6.15;100.00;99742.56;5116110;28;20048;-72
2022/02/22 08:40:19;;;;;;;4.18;0.90;;;;;;;6.21;100.00;99750.22;5097778;28;20073;-72
2022/02/22 08:42:47;;;;;;;2.65;0.90;;;;;;;6.23;100.00;99748.34;5097541;28;20445;-72
2022/02/22 08:45:24;;;;;;;2.25;0.80;;;;;;;6.22;100.00;99751.91;5097957;28;20054;-72
2022/02/22 08:47:54;;;;;;;2.38;0.82;;;;;;;6.29;100.00;99771.03;5097585;28;20047;-72
2022/02/22 08:50:23;;;;;;;3.10;0.85;;;;;;;6.28;100.00;99756.91;5097574;28;20044;-72
2022/02/22 08:52:53;;;;;;;1.63;0.90;;;;;;;6.40;100.00;99775.78;5115779;28;20092;-71
2022/02/22 08:55:21;;;;;;;2.58;1.02;;;;;;;6.37;100.00;99773.25;5097493;28;20043;-72
2022/02/22 08:57:50;;;;;;;3.10;1.05;;;;;;;6.40;100.00;99781.94;5115555;28;20233;-72
2022/02/22 09:00:19;;;;;;;2.00;0.95;;;;;;;6.44;100.00;99794.06;5097055;28;20051;-72
2022/02/22 09:02:53;;;;;;;2.65;1.00;;;;;;;6.47;100.00;99787.78;5097162;28;20044;-71
2022/02/22 09:05:22;;;;;;;2.25;0.90;;;;;;;6.56;100.00;99796.13;5097364;28;20048;-71
2022/02/22 09:07:53;;;;;;;2.85;1.00;;;;;;;6.69;100.00;99780.44;5115355;28;20040;-72
2022/02/22 09:10:24;;;;;;;1.63;0.80;;;;;;;6.72;100.00;99793.53;5097302;28;20047;-72
2022/02/22 09:12:53;;;;;;;3.28;1.08;;;;;;;6.60;100.00;99794.16;5097169;28;20100;-72
2022/02/22 09:15:23;;;;;;;2.22;0.95;;;;;;;6.66;100.00;99807.13;5114266;28;20085;-72
2022/02/22 09:17:52;;;;;;;1.67;0.60;;;;;;;6.68;100.00;99810.53;5115366;28;20540;-72
2022/02/22 09:20:23;;;;;;;2.25;0.90;;;;;;;6.73;100.00;99797.03;5096784;28;20480;-72
2022/02/22 09:22:53;;;;;;;3.30;0.77;;;;;;;6.68;100.00;99821.13;5097027;28;20048;-72
2022/02/22 09:25:24;;;;;;;1.27;1.00;;;;;;;6.77;100.00;99833.91;5097127;28;20101;-72
2022/02/22 09:27:53;;;;;;;1.90;0.75;;;;;;;6.82;100.00;99810.66;5096835;28;20054;-72
2022/02/22 09:30:24;;;;;;;2.58;0.88;;;;;;;6.93;100.00;99823.38;5096910;28;20126;-72
2022/02/22 09:32:53;;;;;;;3.03;0.90;;;;;;;6.90;100.00;99815.56;5115047;28;20036;-72
2022/02/22 09:35:24;;;;;;;0.90;0.70;;;;;;;6.92;100.00;99815.50;5114412;28;20047;-72
2022/02/22 09:37:54;;;;;;;2.08;0.80;;;;;;;7.01;100.00;99822.97;5114953;28;20126;-72
2022/02/22 09:40:25;;;;;;;2.45;0.75;;;;;;;7.15;100.00;99813.38;5114938;28;20119;-72
2022/02/22 09:42:54;;;;;;;3.08;0.82;;;;;;;7.21;100.00;99821.91;5096566;28;20051;-72
2022/02/22 09:45:24;;;;;;;2.53;1.10;;;;;;;7.21;100.00;99811.31;5096893;28;20048;-71
2022/02/22 09:47:57;;;;;;;2.22;1.00;;;;;;;7.29;100.00;99831.19;5114781;28;20043;-72
2022/02/22 09:50:29;;;;;;;5.53;1.25;;;;;;;7.34;100.00;99837.13;5096682;28;20400;-71
2022/02/22 09:52:58;;;;;;;2.92;0.90;;;;;;;7.20;100.00;99844.09;5114253;28;20501;-72
2022/02/22 09:55:27;;;;;;;4.28;1.00;;;;;;;7.14;100.00;99838.19;5114504;28;20063;-72
2022/02/22 09:57:56;;;;;;;1.92;1.00;;;;;;;7.26;100.00;99835.81;5114175;28;20051;-72
2022/02/22 10:00:26;;;;;;;2.90;1.00;;;;;;;7.37;99.75;99831.63;5096216;28;20046;-72
2022/02/22 10:03:01;;;;;;;1.05;0.73;;;;;;;7.25;100.00;99832.31;5095914;28;20134;-73
2022/02/22 10:05:30;;;;;;;1.70;0.90;;;;;;;7.36;100.00;99832.59;5095889;28;20044;-71
2022/02/22 10:08:00;;;;;;;1.83;0.80;;;;;;;7.43;100.00;99844.59;5095926;28;20069;-71
2022/02/22 10:10:34;;;;;;;2.45;1.02;;;;;;;7.32;100.00;99832.81;5114710;28;20043;-71
2022/02/22 10:13:04;;;;;;;3.17;1.08;;;;;;;7.52;100.00;99847.66;5114116;28;20036;-71
2022/02/22 10:15:41;;;;;;;2.47;0.95;;;;;;;7.63;96.57;99843.50;5095367;28;20058;-72
2022/02/22 10:18:11;;;;;;;3.45;1.10;;;;;;;7.63;98.08;99850.63;5095778;28;20086;-72
2022/02/22 10:20:40;;;;;;;2.78;1.30;;;;;;;7.55;98.61;99836.91;5113998;28;20104;-71
2022/02/22 10:23:11;;;;;;;2.72;0.80;;;;;;;7.51;97.24;99852.13;5113565;28;20039;-71
2022/02/22 10:25:42;;;;;;;3.13;0.80;;;;;;;7.59;95.76;99871.16;5114317;28;20035;-71
2022/02/22 10:28:19;;;;;;;1.77;0.90;;;;;;;7.54;94.57;99861.72;5095625;28;20109;-71
2022/02/22 10:30:50;;;;;;;1.95;0.68;;;;;;;7.60;95.03;99862.22;5113807;28;20039;-71
2022/02/22 10:33:21;;;;;;;5.03;1.23;;;;;;;7.64;95.40;99868.25;5113431;28;20040;-71
2022/02/22 10:35:52;;;;;;;10.00;1.50;;;;;;;7.67;93.92;99862.78;5095960;28;20048;-71
2022/02/22 10:38:23;;;;;;;3.13;0.80;;;;;;;7.58;94.12;99868.56;5113602;28;20048;-71
2022/02/22 10:40:57;;;;;;;2.35;0.80;;;;;;;7.71;91.95;99859.00;5095648;28;20043;-71
2022/02/22 10:43:30;;;;;;;2.47;0.90;;;;;;;7.79;91.30;99878.03;5113828;28;20046;-71
2022/02/22 10:46:00;;;;;;;2.72;0.90;;;;;;;7.88;84.29;99868.69;5113936;28;20438;-71
2022/02/22 10:48:34;;;;;;;4.67;1.00;;;;;;;7.88;81.92;99877.53;5095458;28;20048;-71
2022/02/22 10:51:05;;;;;;;1.95;0.70;;;;;;;8.08;78.69;99867.59;5113433;28;20039;-83
2022/02/22 10:53:37;;;;;;;0.95;0.52;;;;;;;8.13;73.47;99865.53;5095693;28;20180;-72
2022/02/22 10:56:09;;;;;;;2.03;0.93;;;;;;;8.12;74.90;99871.81;5113537;28;20093;-72
2022/02/22 10:58:40;;;;;;;4.47;1.17;;;;;;;8.11;73.55;99875.41;5095600;28;20075;-71
2022/02/22 11:01:10;;;;;;;1.65;0.75;;;;;;;8.13;73.41;99879.69;5113400;28;20047;-71
2022/02/22 11:03:41;;;;;;;1.80;0.75;;;;;;;8.15;72.24;99875.13;5113674;28;20040;-72
2022/02/22 11:06:11;;;;;;;1.55;0.70;;;;;;;8.01;71.66;99883.88;5095090;28;20050;-71
2022/02/22 11:08:41;;;;;;;1.77;0.82;;;;;;;7.90;72.64;99886.25;5095216;28;20058;-71
2022/02/22 11:11:37;;;;;;;4.20;1.10;;;;;;;8.11;74.35;99888.69;5113276;28;20377;-71
2022/02/22 11:14:08;;;;;;;3.83;1.02;;;;;;;7.95;73.78;99886.88;5113192;28;20051;-72
2022/02/22 11:16:42;;;;;;;3.75;1.10;;;;;;;8.03;73.27;99908.56;5113539;28;20066;-71
2022/02/22 11:19:17;;;;;;;1.90;0.80;;;;;;;8.14;73.72;99893.81;5094885;28;20052;-72
2022/02/22 11:21:47;;;;;;;2.05;0.80;;;;;;;8.03;72.47;99894.44;5095289;28;20051;-72
2022/02/22 11:24:18;;;;;;;6.97;1.50;;;;;;;8.10;75.02;99889.59;5113317;28;20476;-72
2022/02/22 11:26:51;;;;;;;1.83;0.80;;;;;;;8.06;71.62;99886.28;5113444;28;20477;-71
2022/02/22 11:29:21;;;;;;;1.90;0.80;;;;;;;8.03;70.02;99908.56;5094777;28;20047;-70
2022/02/22 11:31:59;;;;;;;3.97;0.85;;;;;;;8.04;70.24;99909.41;5113340;28;20042;-72
2022/02/22 11:34:33;;;;;;;2.80;1.17;;;;;;;8.03;70.53;99902.38;5094746;28;20054;-72
2022/02/22 11:37:04;;;;;;;1.95;0.73;;;;;;;8.01;69.88;99910.44;5113390;28;20124;-72
2022/02/22 11:39:43;;;;;;;1.45;0.60;;;;;;;7.99;69.76;99907.00;5115838;28;20044;-71
2022/02/22 11:42:20;;;;;;;2.00;0.77;;;;;;;8.06;70.51;99906.66;5117002;28;20043;-71
2022/02/22 11:44:59;;;;;;;1.40;0.85;;;;;;;8.17;70.90;99904.28;5116844;28;20398;-71
2022/02/22 11:47:28;;;;;;;2.95;1.02;;;;;;;8.31;70.49;99934.47;5098706;28;20159;-71